sensor_id;sensor_type;location;lat;lon;timestamp;pressure;altitude;pressure_sealevel;temperature;humidity
21742;BME280;11033;47.490;11.116;2023-03-03T00:00:11;93126.78;;;1.09;87.76
21742;BME280;11033;47.490;11.116;2023-03-03T00:02:36;93127.44;;;1.11;86.62
21742;BME280;11033;47.490;11.116;2023-03-03T00:05:02;93120.50;;;1.11;87.47
21742;BME280;11033;47.490;11.116;2023-03-03T00:07:27;93126.50;;;1.12;88.51
21742;BME280;11033;47.490;11.116;2023-03-03T00:09:52;93126.38;;;1.13;89.46
21742;BME280;11033;47.490;11.116;2023-03-03T00:12:26;93119.94;;;1.08;89.89
21742;BME280;11033;47.490;11.116;2023-03-03T00:14:52;93122.13;;;1.12;88.88
21742;BME280;11033;47.490;11.116;2023-03-03T00:17:24;93122.81;;;1.14;88.54
21742;BME280;11033;47.490;11.116;2023-03-03T00:19:50;93116.41;;;1.18;88.53
21742;BME280;11033;47.490;11.116;2023-03-03T00:22:26;93120.50;;;1.21;88.42
21742;BME280;11033;47.490;11.116;2023-03-03T00:24:52;93115.88;;;1.24;88.62
21742;BME280;11033;47.490;11.116;2023-03-03T00:27:29;93124.47;;;1.25;88.29
21742;BME280;11033;47.490;11.116;2023-03-03T00:29:59;93123.53;;;1.36;87.11
21742;BME280;11033;47.490;11.116;2023-03-03T00:32:41;93128.97;;;1.23;89.42
21742;BME280;11033;47.490;11.116;2023-03-03T00:35:27;93128.16;;;1.22;88.87
21742;BME280;11033;47.490;11.116;2023-03-03T00:37:59;93119.94;;;1.17;89.90
21742;BME280;11033;47.490;11.116;2023-03-03T00:40:35;93134.28;;;1.21;89.06
21742;BME280;11033;47.490;11.116;2023-03-03T00:43:01;93134.56;;;1.28;88.79
21742;BME280;11033;47.490;11.116;2023-03-03T00:45:45;93136.63;;;1.24;89.67
21742;BME280;11033;47.490;11.116;2023-03-03T00:50:58;93129.56;;;1.36;89.00
21742;BME280;11033;47.490;11.116;2023-03-03T00:53:25;93134.19;;;1.42;88.45
21742;BME280;11033;47.490;11.116;2023-03-03T00:55:52;93140.47;;;1.40;89.51
21742;BME280;11033;47.490;11.116;2023-03-03T00:58:19;93134.34;;;1.41;89.76
21742;BME280;11033;47.490;11.116;2023-03-03T01:00:47;93135.69;;;1.45;88.64
21742;BME280;11033;47.490;11.116;2023-03-03T01:03:15;93142.94;;;1.41;88.40
21742;BME280;11033;47.490;11.116;2023-03-03T01:05:41;93132.00;;;1.38;89.56
21742;BME280;11033;47.490;11.116;2023-03-03T01:08:06;93141.56;;;1.47;88.30
21742;BME280;11033;47.490;11.116;2023-03-03T01:10:35;93147.03;;;1.44;89.54
21742;BME280;11033;47.490;11.116;2023-03-03T01:13:02;93138.84;;;1.48;88.08
21742;BME280;11033;47.490;11.116;2023-03-03T01:15:28;93142.94;;;1.41;88.82
21742;BME280;11033;47.490;11.116;2023-03-03T01:17:54;93133.94;;;1.45;88.08
21742;BME280;11033;47.490;11.116;2023-03-03T01:20:19;93134.75;;;1.46;88.23
21742;BME280;11033;47.490;11.116;2023-03-03T01:22:45;93129.56;;;1.46;88.66
21742;BME280;11033;47.490;11.116;2023-03-03T01:25:10;93139.53;;;1.50;88.78
21742;BME280;11033;47.490;11.116;2023-03-03T01:27:37;93134.59;;;1.47;88.70
21742;BME280;11033;47.490;11.116;2023-03-03T01:30:06;93136.13;;;1.50;88.58
21742;BME280;11033;47.490;11.116;2023-03-03T01:32:31;93136.38;;;1.66;86.61
21742;BME280;11033;47.490;11.116;2023-03-03T01:34:57;93131.47;;;1.63;88.07
21742;BME280;11033;47.490;11.116;2023-03-03T01:37:22;93137.47;;;1.44;90.57
21742;BME280;11033;47.490;11.116;2023-03-03T01:39:57;93138.56;;;1.51;89.99
21742;BME280;11033;47.490;11.116;2023-03-03T01:42:22;93139.66;;;1.58;88.66
21742;BME280;11033;47.490;11.116;2023-03-03T01:44:48;93129.28;;;1.49;90.61
21742;BME280;11033;47.490;11.116;2023-03-03T01:47:20;93129.84;;;1.52;89.99
21742;BME280;11033;47.490;11.116;2023-03-03T01:49:57;93135.28;;;1.59;87.75
21742;BME280;11033;47.490;11.116;2023-03-03T01:52:34;93126.56;;;1.60;87.66
21742;BME280;11033;47.490;11.116;2023-03-03T01:55:04;93131.59;;;1.62;86.94
21742;BME280;11033;47.490;11.116;2023-03-03T01:57:38;93125.19;;;1.56;89.21
21742;BME280;11033;47.490;11.116;2023-03-03T02:00:07;93128.59;;;1.56;89.13
21742;BME280;11033;47.490;11.116;2023-03-03T02:02:33;93118.34;;;1.55;89.58
21742;BME280;11033;47.490;11.116;2023-03-03T02:04:58;93129.84;;;1.52;89.60
21742;BME280;11033;47.490;11.116;2023-03-03T02:07:26;93127.38;;;1.51;90.02
21742;BME280;11033;47.490;11.116;2023-03-03T02:09:59;93130.66;;;1.53;89.99
21742;BME280;11033;47.490;11.116;2023-03-03T02:12:37;93123.00;;;1.61;89.03
21742;BME280;11033;47.490;11.116;2023-03-03T02:15:23;93130.09;;;1.49;89.85
21742;BME280;11033;47.490;11.116;2023-03-03T02:17:52;93125.19;;;1.56;88.68
21742;BME280;11033;47.490;11.116;2023-03-03T02:20:36;93125.72;;;1.50;88.83
21742;BME280;11033;47.490;11.116;2023-03-03T02:23:21;93130.09;;;1.59;88.51
21742;BME280;11033;47.490;11.116;2023-03-03T02:28:27;93133.09;;;1.54;89.25
21742;BME280;11033;47.490;11.116;2023-03-03T02:30:54;93135.56;;;1.56;89.54
21742;BME280;11033;47.490;11.116;2023-03-03T02:33:20;93129.41;;;1.57;89.20
21742;BME280;11033;47.490;11.116;2023-03-03T02:35:46;93135.56;;;1.56;89.73
21742;BME280;11033;47.490;11.116;2023-03-03T02:40:58;93130.78;;;1.51;90.15
21742;BME280;11033;47.490;11.116;2023-03-03T02:43:35;93129.69;;;1.54;90.57
21742;BME280;11033;47.490;11.116;2023-03-03T02:46:01;93132.03;;;1.57;89.80
21742;BME280;11033;47.490;11.116;2023-03-03T02:48:27;93126.00;;;1.56;90.16
21742;BME280;11033;47.490;11.116;2023-03-03T02:50:52;93130.09;;;1.59;90.35
21742;BME280;11033;47.490;11.116;2023-03-03T02:53:17;93127.38;;;1.51;90.29
21742;BME280;11033;47.490;11.116;2023-03-03T02:55:42;93136.94;;;1.50;91.43
21742;BME280;11033;47.490;11.116;2023-03-03T02:58:08;93134.47;;;1.49;91.39
21742;BME280;11033;47.490;11.116;2023-03-03T03:00:33;93134.75;;;1.46;90.67
21742;BME280;11033;47.490;11.116;2023-03-03T03:02:58;93134.19;;;1.52;89.87
21742;BME280;11033;47.490;11.116;2023-03-03T03:05:24;93136.66;;;1.53;90.73
21742;BME280;11033;47.490;11.116;2023-03-03T03:07:49;93135.28;;;1.59;89.58
21742;BME280;11033;47.490;11.116;2023-03-03T03:10:14;93136.13;;;1.59;89.13
21742;BME280;11033;47.490;11.116;2023-03-03T03:12:40;93133.66;;;1.58;89.12
21742;BME280;11033;47.490;11.116;2023-03-03T03:15:06;93129.84;;;1.52;90.47
21742;BME280;11033;47.490;11.116;2023-03-03T03:17:35;93129.00;;;1.52;90.56
21742;BME280;11033;47.490;11.116;2023-03-03T03:20:00;93128.06;;;1.53;90.83
21742;BME280;11033;47.490;11.116;2023-03-03T03:22:25;93136.38;;;1.47;91.30
21742;BME280;11033;47.490;11.116;2023-03-03T03:24:51;93134.19;;;1.52;90.74
21742;BME280;11033;47.490;11.116;2023-03-03T03:27:16;93126.81;;;1.57;90.14
21742;BME280;11033;47.490;11.116;2023-03-03T03:29:43;93124.63;;;1.52;91.12
21742;BME280;11033;47.490;11.116;2023-03-03T03:32:08;93124.22;;;1.57;89.96
21742;BME280;11033;47.490;11.116;2023-03-03T03:34:34;93127.78;;;1.56;90.95
21742;BME280;11033;47.490;11.116;2023-03-03T03:36:59;93128.75;;;1.55;91.35
21742;BME280;11033;47.490;11.116;2023-03-03T03:39:24;93131.75;;;1.60;89.79
21742;BME280;11033;47.490;11.116;2023-03-03T03:41:49;93124.91;;;1.59;89.57
21742;BME280;11033;47.490;11.116;2023-03-03T03:44:15;93123.97;;;1.50;91.45
21742;BME280;11033;47.490;11.116;2023-03-03T03:46:40;93123.81;;;1.52;91.47
21742;BME280;11033;47.490;11.116;2023-03-03T03:49:05;93117.41;;;1.56;90.64
21742;BME280;11033;47.490;11.116;2023-03-03T03:51:31;93121.09;;;1.53;91.04
21742;BME280;11033;47.490;11.116;2023-03-03T03:53:58;93123.69;;;1.53;90.70
21742;BME280;11033;47.490;11.116;2023-03-03T03:56:23;93120.94;;;1.55;91.05
21742;BME280;11033;47.490;11.116;2023-03-03T03:58:48;93115.75;;;1.55;91.53
21742;BME280;11033;47.490;11.116;2023-03-03T04:01:13;93119.72;;;1.59;90.25
21742;BME280;11033;47.490;11.116;2023-03-03T04:03:39;93128.19;;;1.61;90.96
21742;BME280;11033;47.490;11.116;2023-03-03T04:06:04;93117.94;;;1.59;90.51
21742;BME280;11033;47.490;11.116;2023-03-03T04:08:29;93114.25;;;1.62;90.01
21742;BME280;11033;47.490;11.116;2023-03-03T04:10:55;93116.84;;;1.62;89.95
21742;BME280;11033;47.490;11.116;2023-03-03T04:13:20;93109.34;;;1.59;90.29
21742;BME280;11033;47.490;11.116;2023-03-03T04:15:46;93101.81;;;1.56;90.81
21742;BME280;11033;47.490;11.116;2023-03-03T04:18:11;93108.78;;;1.65;89.36
21742;BME280;11033;47.490;11.116;2023-03-03T04:20:38;93112.63;;;1.61;90.51
21742;BME280;11033;47.490;11.116;2023-03-03T04:23:04;93105.50;;;1.63;90.34
21742;BME280;11033;47.490;11.116;2023-03-03T04:25:29;93108.50;;;1.68;90.12
21742;BME280;11033;47.490;11.116;2023-03-03T04:27:54;93104.16;;;1.59;90.54
21742;BME280;11033;47.490;11.116;2023-03-03T04:30:19;93105.22;;;1.66;90.26
21742;BME280;11033;47.490;11.116;2023-03-03T04:32:45;93102.09;;;1.72;89.18
21742;BME280;11033;47.490;11.116;2023-03-03T04:35:10;93103.59;;;1.65;89.91
21742;BME280;11033;47.490;11.116;2023-03-03T04:37:36;93101.00;;;1.65;88.60
21742;BME280;11033;47.490;11.116;2023-03-03T04:40:04;93098.41;;;1.55;91.79
21742;BME280;11033;47.490;11.116;2023-03-03T04:42:30;93100.31;;;1.63;91.57
21742;BME280;11033;47.490;11.116;2023-03-03T04:44:55;93097.16;;;1.69;90.72
21742;BME280;11033;47.490;11.116;2023-03-03T04:47:20;93100.19;;;1.65;91.09
21742;BME280;11033;47.490;11.116;2023-03-03T04:49:46;93108.94;;;1.64;91.27
21742;BME280;11033;47.490;11.116;2023-03-03T04:52:11;93105.38;;;1.65;90.70
21742;BME280;11033;47.490;11.116;2023-03-03T04:54:37;93108.50;;;1.68;90.35
21742;BME280;11033;47.490;11.116;2023-03-03T04:57:02;93101.69;;;1.67;89.52
21742;BME280;11033;47.490;11.116;2023-03-03T04:59:27;93099.38;;;1.64;89.46
21742;BME280;11033;47.490;11.116;2023-03-03T05:01:52;93098.41;;;1.65;90.00
21742;BME280;11033;47.490;11.116;2023-03-03T05:04:18;93102.50;;;1.68;89.49
21742;BME280;11033;47.490;11.116;2023-03-03T05:06:43;93100.72;;;1.68;89.70
21742;BME280;11033;47.490;11.116;2023-03-03T05:09:08;93096.50;;;1.67;90.13
21742;BME280;11033;47.490;11.116;2023-03-03T05:11:34;93092.94;;;1.68;89.84
21742;BME280;11033;47.490;11.116;2023-03-03T05:13:59;93098.53;;;1.64;90.29
21742;BME280;11033;47.490;11.116;2023-03-03T05:16:24;93099.09;;;1.57;91.42
21742;BME280;11033;47.490;11.116;2023-03-03T05:18:50;93088.31;;;1.62;91.74
21742;BME280;11033;47.490;11.116;2023-03-03T05:21:15;93103.31;;;1.68;91.30
21742;BME280;11033;47.490;11.116;2023-03-03T05:23:40;93099.38;;;1.64;92.04
21742;BME280;11033;47.490;11.116;2023-03-03T05:26:05;93100.03;;;1.66;91.38
21742;BME280;11033;47.490;11.116;2023-03-03T05:28:31;93102.78;;;1.65;91.65
21742;BME280;11033;47.490;11.116;2023-03-03T05:30:57;93104.97;;;1.69;92.08
21742;BME280;11033;47.490;11.116;2023-03-03T05:33:22;93097.16;;;1.69;91.02
21742;BME280;11033;47.490;11.116;2023-03-03T05:35:52;93102.22;;;1.71;89.91
21742;BME280;11033;47.490;11.116;2023-03-03T05:38:18;93102.22;;;1.71;90.84
21742;BME280;11033;47.490;11.116;2023-03-03T05:40:43;93102.22;;;1.71;90.93
21742;BME280;11033;47.490;11.116;2023-03-03T05:43:08;93107.41;;;1.71;91.97
21742;BME280;11033;47.490;11.116;2023-03-03T05:45:34;93099.50;;;1.72;91.26
21742;BME280;11033;47.490;11.116;2023-03-03T05:47:59;93104.69;;;1.72;90.89
21742;BME280;11033;47.490;11.116;2023-03-03T05:50:25;93107.13;;;1.74;91.12
21742;BME280;11033;47.490;11.116;2023-03-03T05:52:51;93106.88;;;1.77;90.76
21742;BME280;11033;47.490;11.116;2023-03-03T05:55:17;93105.50;;;1.73;91.70
21742;BME280;11033;47.490;11.116;2023-03-03T05:57:42;93107.13;;;1.74;92.15
21742;BME280;11033;47.490;11.116;2023-03-03T06:00:10;93116.16;;;1.70;92.16
21742;BME280;11033;47.490;11.116;2023-03-03T06:02:35;93112.19;;;1.66;93.32
21742;BME280;11033;47.490;11.116;2023-03-03T06:05:01;93116.03;;;1.71;93.18
21742;BME280;11033;47.490;11.116;2023-03-03T06:07:26;93122.84;;;1.72;92.28
21742;BME280;11033;47.490;11.116;2023-03-03T06:09:51;93117.25;;;1.77;92.00
21742;BME280;11033;47.490;11.116;2023-03-03T06:12:17;93112.88;;;1.77;92.16
21742;BME280;11033;47.490;11.116;2023-03-03T06:14:42;93119.56;;;1.80;92.57
21742;BME280;11033;47.490;11.116;2023-03-03T06:17:07;93123.25;;;1.77;92.09
21742;BME280;11033;47.490;11.116;2023-03-03T06:19:33;93124.91;;;1.78;92.52
21742;BME280;11033;47.490;11.116;2023-03-03T06:21:58;93131.72;;;1.79;91.04
21742;BME280;11033;47.490;11.116;2023-03-03T06:24:23;93128.19;;;1.80;91.23
21742;BME280;11033;47.490;11.116;2023-03-03T06:26:51;93129.81;;;1.81;92.17
21742;BME280;11033;47.490;11.116;2023-03-03T06:29:16;93133.91;;;1.84;90.41
21742;BME280;11033;47.490;11.116;2023-03-03T06:31:42;93132.81;;;1.86;89.35
21742;BME280;11033;47.490;11.116;2023-03-03T06:34:07;93141.56;;;1.85;91.19
21742;BME280;11033;47.490;11.116;2023-03-03T06:36:33;93146.19;;;1.91;90.34
21742;BME280;11033;47.490;11.116;2023-03-03T06:38:58;93144.28;;;1.94;89.61
21742;BME280;11033;47.490;11.116;2023-03-03T06:41:25;93144.28;;;1.94;90.75
21742;BME280;11033;47.490;11.116;2023-03-03T06:43:50;93149.22;;;1.97;90.07
21742;BME280;11033;47.490;11.116;2023-03-03T06:46:15;93149.75;;;1.90;90.68
21742;BME280;11033;47.490;11.116;2023-03-03T06:48:41;93154.66;;;1.94;90.30
21742;BME280;11033;47.490;11.116;2023-03-03T06:51:24;93163.03;;;1.97;89.20
21742;BME280;11033;47.490;11.116;2023-03-03T06:53:55;93157.69;;;1.99;90.72
21742;BME280;11033;47.490;11.116;2023-03-03T06:56:23;93163.84;;;1.98;89.91
21742;BME280;11033;47.490;11.116;2023-03-03T06:58:48;93165.91;;;2.04;90.03
21742;BME280;11033;47.490;11.116;2023-03-03T07:01:16;93164.25;;;2.03;89.13
21742;BME280;11033;47.490;11.116;2023-03-03T07:03:42;93172.19;;;2.01;89.46
21742;BME280;11033;47.490;11.116;2023-03-03T07:06:15;93175.88;;;1.99;89.91
21742;BME280;11033;47.490;11.116;2023-03-03T07:08:42;93174.38;;;2.06;89.11
21742;BME280;11033;47.490;11.116;2023-03-03T07:11:11;93180.94;;;2.10;88.65
21742;BME280;11033;47.490;11.116;2023-03-03T07:13:45;93185.00;;;1.93;89.22
21742;BME280;11033;47.490;11.116;2023-03-03T07:16:12;93186.41;;;1.97;90.09
21742;BME280;11033;47.490;11.116;2023-03-03T07:18:49;93191.03;;;1.94;89.80
21742;BME280;11033;47.490;11.116;2023-03-03T07:21:42;93184.47;;;2.09;87.87
21742;BME280;11033;47.490;11.116;2023-03-03T07:24:28;93189.41;;;2.12;87.38
21742;BME280;11033;47.490;11.116;2023-03-03T07:29:38;93201.00;;;2.17;88.09
21742;BME280;11033;47.490;11.116;2023-03-03T07:34:59;93205.81;;;2.12;88.81
21742;BME280;11033;47.490;11.116;2023-03-03T07:37:50;93199.25;;;2.18;88.12
21742;BME280;11033;47.490;11.116;2023-03-03T07:40:37;93200.59;;;2.22;88.81
21742;BME280;11033;47.490;11.116;2023-03-03T07:45:55;93214.56;;;2.02;89.03
21742;BME280;11033;47.490;11.116;2023-03-03T07:48:30;93217.56;;;2.16;87.44
21742;BME280;11033;47.490;11.116;2023-03-03T07:51:03;93220.56;;;2.12;87.58
21742;BME280;11033;47.490;11.116;2023-03-03T07:53:30;93224.66;;;2.14;88.67
21742;BME280;11033;47.490;11.116;2023-03-03T07:55:59;93222.34;;;2.21;87.65
21742;BME280;11033;47.490;11.116;2023-03-03T07:58:35;93221.66;;;2.19;87.43
21742;BME280;11033;47.490;11.116;2023-03-03T08:03:55;93227.13;;;2.26;87.82
21742;BME280;11033;47.490;11.116;2023-03-03T08:11:46;93217.69;;;2.25;87.86
21742;BME280;11033;47.490;11.116;2023-03-03T08:14:15;93215.34;;;2.31;88.66
21742;BME280;11033;47.490;11.116;2023-03-03T08:16:45;93221.50;;;2.30;87.67
21742;BME280;11033;47.490;11.116;2023-03-03T08:19:10;93213.72;;;2.30;88.21
21742;BME280;11033;47.490;11.116;2023-03-03T08:21:37;93225.22;;;2.28;88.60
21742;BME280;11033;47.490;11.116;2023-03-03T08:24:03;93220.16;;;2.16;89.19
21742;BME280;11033;47.490;11.116;2023-03-03T08:26:28;93225.06;;;2.29;89.21
21742;BME280;11033;47.490;11.116;2023-03-03T08:28:54;93219.59;;;2.32;88.77
21742;BME280;11033;47.490;11.116;2023-03-03T08:31:20;93221.78;;;2.37;87.88
21742;BME280;11033;47.490;11.116;2023-03-03T08:33:46;93225.75;;;2.31;88.20
21742;BME280;11033;47.490;11.116;2023-03-03T08:36:12;93223.44;;;2.28;88.08
21742;BME280;11033;47.490;11.116;2023-03-03T08:38:37;93230.66;;;2.34;88.64
21742;BME280;11033;47.490;11.116;2023-03-03T08:41:04;93230.38;;;2.37;88.01
21742;BME280;11033;47.490;11.116;2023-03-03T08:43:29;93234.78;;;2.27;88.01
21742;BME280;11033;47.490;11.116;2023-03-03T08:45:57;93235.44;;;2.39;89.33
21742;BME280;11033;47.490;11.116;2023-03-03T08:48:24;93238.88;;;2.39;89.88
21742;BME280;11033;47.490;11.116;2023-03-03T08:50:50;93238.56;;;2.52;89.39
21742;BME280;11033;47.490;11.116;2023-03-03T08:53:17;93239.94;;;2.46;89.36
21742;BME280;11033;47.490;11.116;2023-03-03T08:55:43;93233.94;;;2.36;89.53
21742;BME280;11033;47.490;11.116;2023-03-03T08:58:08;93240.78;;;2.47;88.99
21742;BME280;11033;47.490;11.116;2023-03-03T09:00:34;93241.59;;;2.38;89.19
21742;BME280;11033;47.490;11.116;2023-03-03T09:03:00;93244.88;;;2.49;89.53
21742;BME280;11033;47.490;11.116;2023-03-03T09:05:25;93248.16;;;2.51;88.91
21742;BME280;11033;47.490;11.116;2023-03-03T09:07:51;93251.31;;;2.65;87.04
21742;BME280;11033;47.490;11.116;2023-03-03T09:10:21;93254.72;;;2.55;87.15
21742;BME280;11033;47.490;11.116;2023-03-03T09:12:52;93255.25;;;2.59;88.05
21742;BME280;11033;47.490;11.116;2023-03-03T09:17:52;93253.91;;;2.45;88.40
21742;BME280;11033;47.490;11.116;2023-03-03T09:20:32;93262.50;;;2.55;88.14
21742;BME280;11033;47.490;11.116;2023-03-03T09:23:27;93265.53;;;2.61;87.25
21742;BME280;11033;47.490;11.116;2023-03-03T09:25:53;93265.38;;;2.72;87.13
21742;BME280;11033;47.490;11.116;2023-03-03T09:28:25;93277.13;;;2.76;87.34
21742;BME280;11033;47.490;11.116;2023-03-03T09:30:52;93268.38;;;2.77;87.00
21742;BME280;11033;47.490;11.116;2023-03-03T09:33:41;93268.63;;;2.83;86.93
21742;BME280;11033;47.490;11.116;2023-03-03T09:36:17;93282.31;;;2.85;86.21
21742;BME280;11033;47.490;11.116;2023-03-03T09:38:44;93282.19;;;2.87;87.16
21742;BME280;11033;47.490;11.116;2023-03-03T09:47:10;93272.72;;;2.86;86.79
21742;BME280;11033;47.490;11.116;2023-03-03T09:50:01;93271.88;;;2.95;87.08
21742;BME280;11033;47.490;11.116;2023-03-03T09:52:56;93268.03;;;2.99;86.47
21742;BME280;11033;47.490;11.116;2023-03-03T10:00:45;93278.56;;;3.07;86.26
21742;BME280;11033;47.490;11.116;2023-03-03T10:22:28;93261.94;;;3.28;85.63
21742;BME280;11033;47.490;11.116;2023-03-03T10:31:22;93264.66;;;3.81;84.80
21742;BME280;11033;47.490;11.116;2023-03-03T10:33:57;93262.28;;;3.88;84.44
21742;BME280;11033;47.490;11.116;2023-03-03T10:36:45;93267.75;;;3.94;83.20
21742;BME280;11033;47.490;11.116;2023-03-03T10:42:06;93272.19;;;3.84;82.41
21742;BME280;11033;47.490;11.116;2023-03-03T10:45:24;93274.41;;;4.06;83.16
21742;BME280;11033;47.490;11.116;2023-03-03T10:56:07;93280.72;;;4.39;81.04
21742;BME280;11033;47.490;11.116;2023-03-03T10:58:45;93274.41;;;4.42;81.09
21742;BME280;11033;47.490;11.116;2023-03-03T11:01:21;93282.66;;;4.20;81.02
21742;BME280;11033;47.490;11.116;2023-03-03T11:04:22;93277.22;;;4.31;81.51
21742;BME280;11033;47.490;11.116;2023-03-03T11:09:59;93273.50;;;4.33;79.97
21742;BME280;11033;47.490;11.116;2023-03-03T11:12:37;93272.69;;;4.51;79.40
21742;BME280;11033;47.490;11.116;2023-03-03T11:23:28;93263.78;;;4.79;79.69
21742;BME280;11033;47.490;11.116;2023-03-03T11:28:58;93265.69;;;4.95;78.27
21742;BME280;11033;47.490;11.116;2023-03-03T11:34:38;93257.19;;;5.19;78.14
21742;BME280;11033;47.490;11.116;2023-03-03T11:39:38;93242.69;;;5.58;77.43
21742;BME280;11033;47.490;11.116;2023-03-03T11:42:34;93235.53;;;5.68;76.69
21742;BME280;11033;47.490;11.116;2023-03-03T11:45:12;93233.28;;;5.82;77.64
21742;BME280;11033;47.490;11.116;2023-03-03T11:48:05;93239.56;;;5.89;77.29
21742;BME280;11033;47.490;11.116;2023-03-03T11:50:57;93239.91;;;5.94;76.75
21742;BME280;11033;47.490;11.116;2023-03-03T11:53:58;93237.34;;;6.10;77.25
21742;BME280;11033;47.490;11.116;2023-03-03T12:04:19;93233.59;;;5.70;75.47
21742;BME280;11033;47.490;11.116;2023-03-03T12:07:12;93236.88;;;5.72;75.58
21742;BME280;11033;47.490;11.116;2023-03-03T12:10:10;93232.81;;;5.36;76.58
21742;BME280;11033;47.490;11.116;2023-03-03T12:12:39;93236.16;;;5.54;76.92
21742;BME280;11033;47.490;11.116;2023-03-03T12:17:55;93226.69;;;5.95;76.63
21742;BME280;11033;47.490;11.116;2023-03-03T12:20:37;93232.56;;;5.55;76.77
21742;BME280;11033;47.490;11.116;2023-03-03T12:23:19;93228.00;;;5.57;76.16
21742;BME280;11033;47.490;11.116;2023-03-03T12:25:57;93229.09;;;5.89;76.12
21742;BME280;11033;47.490;11.116;2023-03-03T12:28:29;93228.00;;;5.57;76.27
21742;BME280;11033;47.490;11.116;2023-03-03T12:38:49;93221.16;;;5.64;76.61
21742;BME280;11033;47.490;11.116;2023-03-03T12:44:14;93228.13;;;5.48;77.55
21742;BME280;11033;47.490;11.116;2023-03-03T12:46:50;93228.88;;;5.32;77.54
21742;BME280;11033;47.490;11.116;2023-03-03T12:49:19;93226.00;;;5.51;77.15
21742;BME280;11033;47.490;11.116;2023-03-03T12:52:01;93224.47;;;5.83;77.08
21742;BME280;11033;47.490;11.116;2023-03-03T12:57:22;93218.63;;;5.89;76.55
21742;BME280;11033;47.490;11.116;2023-03-03T13:02:38;93222.47;;;5.68;75.90
21742;BME280;11033;47.490;11.116;2023-03-03T13:08:14;93213.66;;;5.69;75.76
21742;BME280;11033;47.490;11.116;2023-03-03T13:10:47;93221.59;;;5.52;76.63
21742;BME280;11033;47.490;11.116;2023-03-03T13:13:28;93210.88;;;5.71;76.24
21742;BME280;11033;47.490;11.116;2023-03-03T13:16:00;93223.56;;;5.50;76.20
21742;BME280;11033;47.490;11.116;2023-03-03T13:18:32;93213.97;;;5.58;76.88
21742;BME280;11033;47.490;11.116;2023-03-03T13:21:13;93217.94;;;5.79;76.06
21742;BME280;11033;47.490;11.116;2023-03-03T13:23:57;93211.56;;;5.81;76.33
21742;BME280;11033;47.490;11.116;2023-03-03T13:26:28;93217.28;;;5.85;77.18
21742;BME280;11033;47.490;11.116;2023-03-03T13:29:18;93211.50;;;5.91;76.04
21742;BME280;11033;47.490;11.116;2023-03-03T13:31:47;93211.13;;;5.86;75.80
21742;BME280;11033;47.490;11.116;2023-03-03T13:34:22;93214.00;;;5.74;75.65
21742;BME280;11033;47.490;11.116;2023-03-03T13:36:53;93213.81;;;6.10;75.28
21742;BME280;11033;47.490;11.116;2023-03-03T13:39:24;93209.44;;;5.77;76.11
21742;BME280;11033;47.490;11.116;2023-03-03T13:42:00;93211.81;;;5.96;75.58
21742;BME280;11033;47.490;11.116;2023-03-03T13:44:53;93213.16;;;6.08;76.03
21742;BME280;11033;47.490;11.116;2023-03-03T13:47:30;93212.16;;;6.01;76.46
21742;BME280;11033;47.490;11.116;2023-03-03T13:50:03;93208.13;;;5.72;77.37
21742;BME280;11033;47.490;11.116;2023-03-03T13:53:21;93209.56;;;6.42;76.35
21742;BME280;11033;47.490;11.116;2023-03-03T14:04:53;93205.56;;;5.89;75.78
21742;BME280;11033;47.490;11.116;2023-03-03T14:08:31;93200.09;;;6.49;75.07
21742;BME280;11033;47.490;11.116;2023-03-03T14:16:04;93202.72;;;6.41;74.42
21742;BME280;11033;47.490;11.116;2023-03-03T14:18:38;93197.78;;;6.13;74.90
21742;BME280;11033;47.490;11.116;2023-03-03T14:21:15;93198.63;;;6.30;74.07
21742;BME280;11033;47.490;11.116;2023-03-03T14:24:00;93197.50;;;6.57;75.05
21742;BME280;11033;47.490;11.116;2023-03-03T14:26:26;93196.50;;;6.50;74.11
21742;BME280;11033;47.490;11.116;2023-03-03T14:29:04;93201.06;;;6.31;74.66
21742;BME280;11033;47.490;11.116;2023-03-03T14:31:39;93208.50;;;5.86;75.13
21742;BME280;11033;47.490;11.116;2023-03-03T14:36:38;93202.13;;;5.88;75.86
21742;BME280;11033;47.490;11.116;2023-03-03T14:41:50;93197.75;;;5.47;76.81
21742;BME280;11033;47.490;11.116;2023-03-03T14:44:46;93200.06;;;5.92;76.64
21742;BME280;11033;47.490;11.116;2023-03-03T14:47:25;93202.34;;;6.03;75.76
21742;BME280;11033;47.490;11.116;2023-03-03T14:49:55;93206.56;;;5.88;76.54
21742;BME280;11033;47.490;11.116;2023-03-03T14:52:32;93195.34;;;5.61;77.76
21742;BME280;11033;47.490;11.116;2023-03-03T14:55:00;93202.91;;;5.81;76.76
21742;BME280;11033;47.490;11.116;2023-03-03T15:00:25;93204.81;;;5.54;77.97
21742;BME280;11033;47.490;11.116;2023-03-03T15:05:21;93210.03;;;5.54;76.97
21742;BME280;11033;47.490;11.116;2023-03-03T15:08:09;93201.03;;;5.49;77.43
21742;BME280;11033;47.490;11.116;2023-03-03T15:10:37;93203.28;;;5.44;78.27
21742;BME280;11033;47.490;11.116;2023-03-03T15:13:27;93207.34;;;5.38;77.53
21742;BME280;11033;47.490;11.116;2023-03-03T15:18:28;93205.16;;;4.91;79.23
21742;BME280;11033;47.490;11.116;2023-03-03T15:21:03;93197.22;;;5.01;79.10
21742;BME280;11033;47.490;11.116;2023-03-03T15:24:05;93204.59;;;4.80;79.96
21742;BME280;11033;47.490;11.116;2023-03-03T15:29:28;93194.34;;;4.86;79.13
21742;BME280;11033;47.490;11.116;2023-03-03T15:32:06;93196.63;;;4.81;78.60
21742;BME280;11033;47.490;11.116;2023-03-03T15:37:51;93196.66;;;4.89;78.91
21742;BME280;11033;47.490;11.116;2023-03-03T15:43:23;93194.34;;;4.86;78.68
21742;BME280;11033;47.490;11.116;2023-03-03T15:56:50;93202.09;;;4.70;79.14
21742;BME280;11033;47.490;11.116;2023-03-03T16:04:46;93214.72;;;4.57;80.16
21742;BME280;11033;47.490;11.116;2023-03-03T16:07:43;93206.34;;;4.71;79.62
21742;BME280;11033;47.490;11.116;2023-03-03T16:10:20;93212.25;;;4.55;80.45
21742;BME280;11033;47.490;11.116;2023-03-03T16:31:51;93242.34;;;4.50;80.42
21742;BME280;11033;47.490;11.116;2023-03-03T16:34:21;93241.56;;;4.31;81.07
21742;BME280;11033;47.490;11.116;2023-03-03T16:40:00;93245.00;;;4.14;81.73